sensor_id;sensor_type;location;lat;lon;timestamp;P1;durP1;ratioP1;P2;durP2;ratioP2
16025;SDS011;8117;52.488;13.460;2022-12-07T00:02:03;1.00;;;1.00;;
16025;SDS011;8117;52.488;13.460;2022-12-07T00:10:38;2.07;;;1.80;;
16025;SDS011;8117;52.488;13.460;2022-12-07T00:13:05;5.43;;;1.53;;
16025;SDS011;8117;52.488;13.460;2022-12-07T00:15:33;3.40;;;1.40;;
16025;SDS011;8117;52.488;13.460;2022-12-07T00:18:00;1.00;;;0.90;;
16025;SDS011;8117;52.488;13.460;2022-12-07T00:20:27;3.50;;;1.17;;
16025;SDS011;8117;52.488;13.460;2022-12-07T00:22:55;4.77;;;1.70;;
16025;SDS011;8117;52.488;13.460;2022-12-07T00:25:23;3.17;;;2.73;;
16025;SDS011;8117;52.488;13.460;2022-12-07T00:27:56;1.93;;;1.70;;
16025;SDS011;8117;52.488;13.460;2022-12-07T00:30:23;1.67;;;1.40;;
16025;SDS011;8117;52.488;13.460;2022-12-07T00:32:53;1.87;;;1.73;;
16025;SDS011;8117;52.488;13.460;2022-12-07T00:35:23;1.83;;;1.23;;
16025;SDS011;8117;52.488;13.460;2022-12-07T00:37:50;2.10;;;1.10;;
16025;SDS011;8117;52.488;13.460;2022-12-07T00:40:20;2.23;;;1.73;;
16025;SDS011;8117;52.488;13.460;2022-12-07T00:42:51;1.33;;;0.83;;
16025;SDS011;8117;52.488;13.460;2022-12-07T00:45:18;1.83;;;1.63;;
16025;SDS011;8117;52.488;13.460;2022-12-07T00:47:48;4.17;;;1.07;;
16025;SDS011;8117;52.488;13.460;2022-12-07T00:50:16;1.30;;;1.17;;
16025;SDS011;8117;52.488;13.460;2022-12-07T00:52:43;1.93;;;1.57;;
16025;SDS011;8117;52.488;13.460;2022-12-07T00:55:10;2.40;;;1.03;;
16025;SDS011;8117;52.488;13.460;2022-12-07T00:57:38;1.97;;;1.30;;
16025;SDS011;8117;52.488;13.460;2022-12-07T01:00:05;10.97;;;1.67;;
16025;SDS011;8117;52.488;13.460;2022-12-07T01:02:43;2.43;;;1.10;;
16025;SDS011;8117;52.488;13.460;2022-12-07T01:05:10;3.00;;;1.63;;
16025;SDS011;8117;52.488;13.460;2022-12-07T01:15:35;1.70;;;1.10;;
16025;SDS011;8117;52.488;13.460;2022-12-07T01:18:12;2.13;;;1.40;;
16025;SDS011;8117;52.488;13.460;2022-12-07T01:20:58;1.67;;;1.27;;
16025;SDS011;8117;52.488;13.460;2022-12-07T01:23:42;1.53;;;1.20;;
16025;SDS011;8117;52.488;13.460;2022-12-07T01:26:11;0.97;;;0.83;;
16025;SDS011;8117;52.488;13.460;2022-12-07T01:28:39;1.20;;;1.20;;
16025;SDS011;8117;52.488;13.460;2022-12-07T01:31:10;1.93;;;1.67;;
16025;SDS011;8117;52.488;13.460;2022-12-07T01:33:44;1.27;;;1.17;;
16025;SDS011;8117;52.488;13.460;2022-12-07T01:36:13;1.90;;;0.97;;
16025;SDS011;8117;52.488;13.460;2022-12-07T01:38:41;1.03;;;0.93;;
16025;SDS011;8117;52.488;13.460;2022-12-07T01:41:08;0.83;;;0.73;;
16025;SDS011;8117;52.488;13.460;2022-12-07T01:43:35;1.43;;;1.23;;
16025;SDS011;8117;52.488;13.460;2022-12-07T01:46:08;2.13;;;1.07;;
16025;SDS011;8117;52.488;13.460;2022-12-07T01:48:36;3.03;;;1.60;;
16025;SDS011;8117;52.488;13.460;2022-12-07T01:51:12;1.83;;;0.97;;
16025;SDS011;8117;52.488;13.460;2022-12-07T01:53:42;0.93;;;0.90;;
16025;SDS011;8117;52.488;13.460;2022-12-07T01:56:17;1.60;;;0.93;;
16025;SDS011;8117;52.488;13.460;2022-12-07T01:59:01;1.73;;;0.73;;
16025;SDS011;8117;52.488;13.460;2022-12-07T02:01:35;1.30;;;1.03;;
16025;SDS011;8117;52.488;13.460;2022-12-07T02:06:24;0.47;;;0.43;;
16025;SDS011;8117;52.488;13.460;2022-12-07T02:07:25;2.70;;;1.50;;
16025;SDS011;8117;52.488;13.460;2022-12-07T02:10:14;1.03;;;0.80;;
16025;SDS011;8117;52.488;13.460;2022-12-07T02:12:41;3.40;;;0.97;;
16025;SDS011;8117;52.488;13.460;2022-12-07T02:15:21;0.83;;;0.50;;
16025;SDS011;8117;52.488;13.460;2022-12-07T02:17:57;0.37;;;0.37;;
16025;SDS011;8117;52.488;13.460;2022-12-07T02:20:34;1.43;;;1.13;;
16025;SDS011;8117;52.488;13.460;2022-12-07T02:26:32;1.97;;;1.70;;
16025;SDS011;8117;52.488;13.460;2022-12-07T02:29:28;1.30;;;1.23;;
16025;SDS011;8117;52.488;13.460;2022-12-07T02:32:00;0.50;;;0.50;;
16025;SDS011;8117;52.488;13.460;2022-12-07T02:34:34;1.37;;;0.60;;
16025;SDS011;8117;52.488;13.460;2022-12-07T02:37:08;0.63;;;0.63;;
16025;SDS011;8117;52.488;13.460;2022-12-07T02:39:47;1.20;;;1.03;;
16025;SDS011;8117;52.488;13.460;2022-12-07T02:42:17;2.77;;;0.70;;
16025;SDS011;8117;52.488;13.460;2022-12-07T02:44:55;0.33;;;0.33;;
16025;SDS011;8117;52.488;13.460;2022-12-07T02:47:22;2.13;;;1.13;;
16025;SDS011;8117;52.488;13.460;2022-12-07T02:49:51;1.93;;;1.20;;
16025;SDS011;8117;52.488;13.460;2022-12-07T02:52:21;0.57;;;0.57;;
16025;SDS011;8117;52.488;13.460;2022-12-07T02:54:49;1.90;;;1.17;;
16025;SDS011;8117;52.488;13.460;2022-12-07T02:57:24;1.37;;;0.90;;
16025;SDS011;8117;52.488;13.460;2022-12-07T03:00:04;1.80;;;0.40;;
16025;SDS011;8117;52.488;13.460;2022-12-07T03:02:39;1.47;;;1.37;;
16025;SDS011;8117;52.488;13.460;2022-12-07T03:05:27;0.83;;;0.67;;
16025;SDS011;8117;52.488;13.460;2022-12-07T03:08:05;0.60;;;0.60;;
16025;SDS011;8117;52.488;13.460;2022-12-07T03:10:40;0.80;;;0.80;;
16025;SDS011;8117;52.488;13.460;2022-12-07T03:13:15;0.50;;;0.40;;
16025;SDS011;8117;52.488;13.460;2022-12-07T03:15:47;2.00;;;1.23;;
16025;SDS011;8117;52.488;13.460;2022-12-07T03:18:24;1.13;;;0.97;;
16025;SDS011;8117;52.488;13.460;2022-12-07T03:20:55;1.53;;;0.87;;
16025;SDS011;8117;52.488;13.460;2022-12-07T03:23:25;1.20;;;1.10;;
16025;SDS011;8117;52.488;13.460;2022-12-07T03:25:58;1.60;;;0.93;;
16025;SDS011;8117;52.488;13.460;2022-12-07T03:28:31;1.90;;;1.17;;
16025;SDS011;8117;52.488;13.460;2022-12-07T03:31:10;5.43;;;1.87;;
16025;SDS011;8117;52.488;13.460;2022-12-07T03:33:59;0.87;;;0.87;;
16025;SDS011;8117;52.488;13.460;2022-12-07T03:36:39;0.40;;;0.40;;
16025;SDS011;8117;52.488;13.460;2022-12-07T03:39:41;1.43;;;0.70;;
16025;SDS011;8117;52.488;13.460;2022-12-07T03:42:11;1.87;;;1.50;;
16025;SDS011;8117;52.488;13.460;2022-12-07T03:44:40;1.23;;;1.13;;
16025;SDS011;8117;52.488;13.460;2022-12-07T03:47:11;0.87;;;0.60;;
16025;SDS011;8117;52.488;13.460;2022-12-07T03:49:43;1.03;;;0.60;;
16025;SDS011;8117;52.488;13.460;2022-12-07T03:52:18;1.63;;;1.53;;
16025;SDS011;8117;52.488;13.460;2022-12-07T03:54:51;1.43;;;1.07;;
16025;SDS011;8117;52.488;13.460;2022-12-07T03:57:23;0.30;;;0.30;;
16025;SDS011;8117;52.488;13.460;2022-12-07T03:59:51;4.10;;;2.13;;
16025;SDS011;8117;52.488;13.460;2022-12-07T04:02:26;1.37;;;1.17;;
16025;SDS011;8117;52.488;13.460;2022-12-07T04:04:54;1.80;;;1.07;;
16025;SDS011;8117;52.488;13.460;2022-12-07T04:07:21;0.83;;;0.83;;
16025;SDS011;8117;52.488;13.460;2022-12-07T04:09:50;2.17;;;0.80;;
16025;SDS011;8117;52.488;13.460;2022-12-07T04:12:21;1.70;;;1.30;;
16025;SDS011;8117;52.488;13.460;2022-12-07T04:15:08;2.80;;;1.33;;
16025;SDS011;8117;52.488;13.460;2022-12-07T04:18:18;4.60;;;1.03;;
16025;SDS011;8117;52.488;13.460;2022-12-07T04:20:45;1.93;;;1.40;;
16025;SDS011;8117;52.488;13.460;2022-12-07T04:23:13;0.97;;;0.97;;
16025;SDS011;8117;52.488;13.460;2022-12-07T04:25:47;1.13;;;1.03;;
16025;SDS011;8117;52.488;13.460;2022-12-07T04:28:14;2.87;;;1.47;;
16025;SDS011;8117;52.488;13.460;2022-12-07T04:30:45;2.23;;;0.87;;
16025;SDS011;8117;52.488;13.460;2022-12-07T04:33:15;2.17;;;1.53;;
16025;SDS011;8117;52.488;13.460;2022-12-07T04:35:42;2.60;;;1.77;;
16025;SDS011;8117;52.488;13.460;2022-12-07T04:38:11;2.57;;;1.33;;
16025;SDS011;8117;52.488;13.460;2022-12-07T04:40:38;2.30;;;1.87;;
16025;SDS011;8117;52.488;13.460;2022-12-07T04:43:05;1.57;;;1.47;;
16025;SDS011;8117;52.488;13.460;2022-12-07T04:45:36;3.53;;;2.57;;
16025;SDS011;8117;52.488;13.460;2022-12-07T04:48:18;3.30;;;2.00;;
16025;SDS011;8117;52.488;13.460;2022-12-07T04:50:44;1.83;;;0.90;;
16025;SDS011;8117;52.488;13.460;2022-12-07T04:53:17;1.17;;;1.07;;
16025;SDS011;8117;52.488;13.460;2022-12-07T04:55:44;2.87;;;2.27;;
16025;SDS011;8117;52.488;13.460;2022-12-07T04:58:11;4.13;;;2.50;;
16025;SDS011;8117;52.488;13.460;2022-12-07T05:00:42;3.50;;;2.10;;
16025;SDS011;8117;52.488;13.460;2022-12-07T05:03:12;1.23;;;0.83;;
16025;SDS011;8117;52.488;13.460;2022-12-07T05:05:41;5.20;;;2.50;;
16025;SDS011;8117;52.488;13.460;2022-12-07T05:08:10;3.13;;;2.47;;
16025;SDS011;8117;52.488;13.460;2022-12-07T05:10:37;2.30;;;1.90;;
16025;SDS011;8117;52.488;13.460;2022-12-07T05:13:08;3.87;;;1.43;;
16025;SDS011;8117;52.488;13.460;2022-12-07T05:15:38;1.33;;;1.23;;
16025;SDS011;8117;52.488;13.460;2022-12-07T05:18:05;4.07;;;2.07;;
16025;SDS011;8117;52.488;13.460;2022-12-07T05:20:38;1.87;;;1.63;;
16025;SDS011;8117;52.488;13.460;2022-12-07T05:23:10;5.13;;;2.53;;
16025;SDS011;8117;52.488;13.460;2022-12-07T05:25:39;2.50;;;1.97;;
16025;SDS011;8117;52.488;13.460;2022-12-07T05:28:06;2.50;;;1.10;;
16025;SDS011;8117;52.488;13.460;2022-12-07T05:30:35;2.73;;;2.53;;
16025;SDS011;8117;52.488;13.460;2022-12-07T05:33:08;4.93;;;2.83;;
16025;SDS011;8117;52.488;13.460;2022-12-07T05:35:35;4.80;;;2.53;;
16025;SDS011;8117;52.488;13.460;2022-12-07T05:38:11;2.40;;;2.20;;
16025;SDS011;8117;52.488;13.460;2022-12-07T05:40:38;3.83;;;2.90;;
16025;SDS011;8117;52.488;13.460;2022-12-07T05:43:04;2.47;;;2.27;;
16025;SDS011;8117;52.488;13.460;2022-12-07T05:45:42;5.77;;;2.63;;
16025;SDS011;8117;52.488;13.460;2022-12-07T05:48:51;5.57;;;1.90;;
16025;SDS011;8117;52.488;13.460;2022-12-07T05:51:27;4.70;;;2.37;;
16025;SDS011;8117;52.488;13.460;2022-12-07T05:58:04;2.60;;;1.93;;
16025;SDS011;8117;52.488;13.460;2022-12-07T06:00:51;4.17;;;2.40;;
16025;SDS011;8117;52.488;13.460;2022-12-07T06:13:34;3.40;;;2.43;;
16025;SDS011;8117;52.488;13.460;2022-12-07T06:16:16;9.63;;;3.13;;
16025;SDS011;8117;52.488;13.460;2022-12-07T06:22:39;3.13;;;2.80;;
16025;SDS011;8117;52.488;13.460;2022-12-07T06:29:12;2.87;;;2.43;;
16025;SDS011;8117;52.488;13.460;2022-12-07T06:31:44;9.23;;;4.13;;
16025;SDS011;8117;52.488;13.460;2022-12-07T06:34:12;2.77;;;2.07;;
16025;SDS011;8117;52.488;13.460;2022-12-07T06:36:40;3.83;;;3.47;;
16025;SDS011;8117;52.488;13.460;2022-12-07T06:39:14;4.70;;;2.17;;
16025;SDS011;8117;52.488;13.460;2022-12-07T06:41:41;3.97;;;2.17;;
16025;SDS011;8117;52.488;13.460;2022-12-07T06:44:23;3.27;;;2.13;;
16025;SDS011;8117;52.488;13.460;2022-12-07T06:46:56;3.43;;;3.13;;
16025;SDS011;8117;52.488;13.460;2022-12-07T06:49:38;3.00;;;2.67;;
16025;SDS011;8117;52.488;13.460;2022-12-07T06:52:12;3.47;;;2.30;;
16025;SDS011;8117;52.488;13.460;2022-12-07T06:54:45;5.20;;;2.73;;
16025;SDS011;8117;52.488;13.460;2022-12-07T06:57:14;1.83;;;1.53;;
16025;SDS011;8117;52.488;13.460;2022-12-07T06:59:47;3.07;;;2.80;;
16025;SDS011;8117;52.488;13.460;2022-12-07T07:02:16;5.23;;;3.53;;
16025;SDS011;8117;52.488;13.460;2022-12-07T07:04:45;7.27;;;2.67;;
16025;SDS011;8117;52.488;13.460;2022-12-07T07:07:13;4.80;;;2.97;;
16025;SDS011;8117;52.488;13.460;2022-12-07T07:09:40;4.50;;;2.97;;
16025;SDS011;8117;52.488;13.460;2022-12-07T07:12:09;4.83;;;2.90;;
16025;SDS011;8117;52.488;13.460;2022-12-07T07:15:12;4.37;;;2.63;;
16025;SDS011;8117;52.488;13.460;2022-12-07T07:17:38;4.60;;;3.10;;
16025;SDS011;8117;52.488;13.460;2022-12-07T07:20:11;2.43;;;2.20;;
16025;SDS011;8117;52.488;13.460;2022-12-07T07:22:42;4.37;;;3.07;;
16025;SDS011;8117;52.488;13.460;2022-12-07T07:25:13;5.17;;;3.93;;
16025;SDS011;8117;52.488;13.460;2022-12-07T07:27:43;2.20;;;1.73;;
16025;SDS011;8117;52.488;13.460;2022-12-07T07:30:14;8.20;;;4.00;;
16025;SDS011;8117;52.488;13.460;2022-12-07T07:32:44;3.43;;;2.47;;
16025;SDS011;8117;52.488;13.460;2022-12-07T07:35:11;6.50;;;3.70;;
16025;SDS011;8117;52.488;13.460;2022-12-07T07:37:39;4.27;;;3.77;;
16025;SDS011;8117;52.488;13.460;2022-12-07T07:40:09;2.20;;;1.30;;
16025;SDS011;8117;52.488;13.460;2022-12-07T07:42:39;3.13;;;2.00;;
16025;SDS011;8117;52.488;13.460;2022-12-07T07:45:09;3.80;;;1.67;;
16025;SDS011;8117;52.488;13.460;2022-12-07T07:47:41;1.93;;;1.23;;
16025;SDS011;8117;52.488;13.460;2022-12-07T07:50:08;4.13;;;1.53;;
16025;SDS011;8117;52.488;13.460;2022-12-07T07:52:41;3.47;;;2.50;;
16025;SDS011;8117;52.488;13.460;2022-12-07T07:55:12;4.07;;;2.13;;
16025;SDS011;8117;52.488;13.460;2022-12-07T07:57:43;5.37;;;2.07;;
16025;SDS011;8117;52.488;13.460;2022-12-07T08:00:11;3.43;;;2.47;;
16025;SDS011;8117;52.488;13.460;2022-12-07T08:02:43;1.70;;;1.60;;
16025;SDS011;8117;52.488;13.460;2022-12-07T08:05:25;3.07;;;2.33;;
16025;SDS011;8117;52.488;13.460;2022-12-07T08:07:54;2.20;;;2.03;;
16025;SDS011;8117;52.488;13.460;2022-12-07T08:10:24;5.60;;;2.03;;
16025;SDS011;8117;52.488;13.460;2022-12-07T08:12:54;4.07;;;1.63;;
16025;SDS011;8117;52.488;13.460;2022-12-07T09:30:51;0.57;;;0.57;;
16025;SDS011;8117;52.488;13.460;2022-12-07T09:35:30;0.40;;;0.37;;
16025;SDS011;8117;52.488;13.460;2022-12-07T09:36:25;0.33;;;0.33;;
16025;SDS011;8117;52.488;13.460;2022-12-07T09:39:16;0.37;;;0.37;;
16025;SDS011;8117;52.488;13.460;2022-12-07T09:41:44;1.00;;;0.33;;
16025;SDS011;8117;52.488;13.460;2022-12-07T09:44:17;0.63;;;0.63;;
16025;SDS011;8117;52.488;13.460;2022-12-07T09:49:39;0.57;;;0.57;;
16025;SDS011;8117;52.488;13.460;2022-12-07T09:52:17;0.40;;;0.40;;
16025;SDS011;8117;52.488;13.460;2022-12-07T09:55:23;2.97;;;0.70;;
16025;SDS011;8117;52.488;13.460;2022-12-07T09:58:22;2.30;;;1.27;;
16025;SDS011;8117;52.488;13.460;2022-12-07T10:00:50;0.67;;;0.53;;
16025;SDS011;8117;52.488;13.460;2022-12-07T10:06:27;0.13;;;0.13;;
16025;SDS011;8117;52.488;13.460;2022-12-07T10:09:01;0.73;;;0.60;;
16025;SDS011;8117;52.488;13.460;2022-12-07T10:11:57;1.73;;;0.30;;
16025;SDS011;8117;52.488;13.460;2022-12-07T10:14:51;0.53;;;0.53;;
16025;SDS011;8117;52.488;13.460;2022-12-07T10:23:17;0.93;;;0.70;;
16025;SDS011;8117;52.488;13.460;2022-12-07T10:25:57;0.60;;;0.60;;
16025;SDS011;8117;52.488;13.460;2022-12-07T10:28:35;0.47;;;0.40;;
16025;SDS011;8117;52.488;13.460;2022-12-07T10:31:16;1.20;;;0.97;;
16025;SDS011;8117;52.488;13.460;2022-12-07T12:05:52;1.13;;;0.63;;
16025;SDS011;8117;52.488;13.460;2022-12-07T12:08:20;3.07;;;1.23;;
16025;SDS011;8117;52.488;13.460;2022-12-07T12:10:51;1.60;;;0.77;;
16025;SDS011;8117;52.488;13.460;2022-12-07T12:13:28;0.50;;;0.50;;
16025;SDS011;8117;52.488;13.460;2022-12-07T12:16:15;0.37;;;0.37;;
16025;SDS011;8117;52.488;13.460;2022-12-07T12:19:04;0.40;;;0.40;;
16025;SDS011;8117;52.488;13.460;2022-12-07T12:21:49;1.67;;;1.00;;
16025;SDS011;8117;52.488;13.460;2022-12-07T12:24:22;0.87;;;0.80;;
16025;SDS011;8117;52.488;13.460;2022-12-07T12:26:57;0.63;;;0.50;;
16025;SDS011;8117;52.488;13.460;2022-12-07T12:29:28;0.30;;;0.30;;
16025;SDS011;8117;52.488;13.460;2022-12-07T12:32:16;3.70;;;0.60;;
16025;SDS011;8117;52.488;13.460;2022-12-07T12:35:01;0.90;;;0.53;;
16025;SDS011;8117;52.488;13.460;2022-12-07T12:37:46;0.77;;;0.70;;
16025;SDS011;8117;52.488;13.460;2022-12-07T12:49:24;0.23;;;0.23;;
16025;SDS011;8117;52.488;13.460;2022-12-07T12:55:20;0.20;;;0.20;;
16025;SDS011;8117;52.488;13.460;2022-12-07T12:58:37;1.23;;;1.13;;
16025;SDS011;8117;52.488;13.460;2022-12-07T13:07:56;1.87;;;0.97;;
16025;SDS011;8117;52.488;13.460;2022-12-07T13:13:44;0.50;;;0.50;;
16025;SDS011;8117;52.488;13.460;2022-12-07T13:22:37;0.30;;;0.30;;
16025;SDS011;8117;52.488;13.460;2022-12-07T13:25:21;0.87;;;0.70;;
16025;SDS011;8117;52.488;13.460;2022-12-07T13:27:57;0.63;;;0.63;;
16025;SDS011;8117;52.488;13.460;2022-12-07T13:30:31;0.50;;;0.50;;
16025;SDS011;8117;52.488;13.460;2022-12-07T13:33:38;0.30;;;0.30;;
16025;SDS011;8117;52.488;13.460;2022-12-07T13:36:15;1.60;;;0.57;;
16025;SDS011;8117;52.488;13.460;2022-12-07T13:38:59;0.30;;;0.30;;
16025;SDS011;8117;52.488;13.460;2022-12-07T13:41:51;0.90;;;0.90;;
16025;SDS011;8117;52.488;13.460;2022-12-07T13:44:27;0.47;;;0.47;;
16025;SDS011;8117;52.488;13.460;2022-12-07T13:47:15;0.80;;;0.80;;
16025;SDS011;8117;52.488;13.460;2022-12-07T13:49:50;0.60;;;0.53;;
16025;SDS011;8117;52.488;13.460;2022-12-07T13:52:20;0.47;;;0.47;;
16025;SDS011;8117;52.488;13.460;2022-12-07T13:54:56;0.47;;;0.20;;
16025;SDS011;8117;52.488;13.460;2022-12-07T13:57:29;1.80;;;1.70;;
16025;SDS011;8117;52.488;13.460;2022-12-07T14:00:02;0.70;;;0.70;;
16025;SDS011;8117;52.488;13.460;2022-12-07T14:02:54;0.30;;;0.30;;
16025;SDS011;8117;52.488;13.460;2022-12-07T14:05:23;1.47;;;0.60;;
16025;SDS011;8117;52.488;13.460;2022-12-07T14:07:55;1.80;;;0.80;;
16025;SDS011;8117;52.488;13.460;2022-12-07T14:10:30;1.60;;;0.53;;
16025;SDS011;8117;52.488;13.460;2022-12-07T14:18:51;0.43;;;0.43;;
16025;SDS011;8117;52.488;13.460;2022-12-07T14:21:30;0.67;;;0.67;;
16025;SDS011;8117;52.488;13.460;2022-12-07T14:27:15;0.50;;;0.50;;
16025;SDS011;8117;52.488;13.460;2022-12-07T14:30:27;5.67;;;1.17;;
16025;SDS011;8117;52.488;13.460;2022-12-07T14:33:14;0.57;;;0.57;;
16025;SDS011;8117;52.488;13.460;2022-12-07T14:35:46;5.73;;;0.97;;
16025;SDS011;8117;52.488;13.460;2022-12-07T14:38:20;0.80;;;0.77;;
16025;SDS011;8117;52.488;13.460;2022-12-07T14:41:21;0.40;;;0.40;;
16025;SDS011;8117;52.488;13.460;2022-12-07T14:44:21;0.17;;;0.17;;
16025;SDS011;8117;52.488;13.460;2022-12-07T14:47:05;0.23;;;0.23;;
16025;SDS011;8117;52.488;13.460;2022-12-07T14:49:57;0.20;;;0.20;;
16025;SDS011;8117;52.488;13.460;2022-12-07T14:52:44;0.60;;;0.60;;
16025;SDS011;8117;52.488;13.460;2022-12-07T14:55:42;3.70;;;0.30;;
16025;SDS011;8117;52.488;13.460;2022-12-07T14:58:30;0.30;;;0.30;;
16025;SDS011;8117;52.488;13.460;2022-12-07T15:02:22;0.30;;;0.30;;
16025;SDS011;8117;52.488;13.460;2022-12-07T15:04:40;0.17;;;0.17;;
16025;SDS011;8117;52.488;13.460;2022-12-07T15:17:27;0.90;;;0.90;;
16025;SDS011;8117;52.488;13.460;2022-12-07T15:19:58;0.27;;;0.27;;
16025;SDS011;8117;52.488;13.460;2022-12-07T15:22:48;0.87;;;0.70;;
16025;SDS011;8117;52.488;13.460;2022-12-07T15:25:18;0.73;;;0.70;;
16025;SDS011;8117;52.488;13.460;2022-12-07T15:27:59;0.10;;;0.10;;
16025;SDS011;8117;52.488;13.460;2022-12-07T15:30:41;0.10;;;0.10;;
16025;SDS011;8117;52.488;13.460;2022-12-07T15:33:43;0.53;;;0.53;;
16025;SDS011;8117;52.488;13.460;2022-12-07T15:36:36;0.43;;;0.40;;
16025;SDS011;8117;52.488;13.460;2022-12-07T15:39:19;4.80;;;0.70;;
16025;SDS011;8117;52.488;13.460;2022-12-07T15:41:50;0.40;;;0.40;;
16025;SDS011;8117;52.488;13.460;2022-12-07T15:47:35;0.60;;;0.60;;
16025;SDS011;8117;52.488;13.460;2022-12-07T15:50:05;0.10;;;0.10;;
16025;SDS011;8117;52.488;13.460;2022-12-07T15:52:46;0.57;;;0.57;;
16025;SDS011;8117;52.488;13.460;2022-12-07T15:55:15;0.37;;;0.37;;
16025;SDS011;8117;52.488;13.460;2022-12-07T15:57:42;0.93;;;0.50;;
16025;SDS011;8117;52.488;13.460;2022-12-07T16:06:24;0.57;;;0.40;;
16025;SDS011;8117;52.488;13.460;2022-12-07T16:12:15;0.83;;;0.30;;
16025;SDS011;8117;52.488;13.460;2022-12-07T16:14:53;0.20;;;0.20;;
16025;SDS011;8117;52.488;13.460;2022-12-07T16:17:22;1.27;;;1.17;;
16025;SDS011;8117;52.488;13.460;2022-12-07T16:20:02;0.30;;;0.30;;
16025;SDS011;8117;52.488;13.460;2022-12-07T16:22:57;0.50;;;0.50;;
16025;SDS011;8117;52.488;13.460;2022-12-07T16:25:36;0.50;;;0.50;;
16025;SDS011;8117;52.488;13.460;2022-12-07T16:28:13;0.10;;;0.10;;
16025;SDS011;8117;52.488;13.460;2022-12-07T16:31:10;1.10;;;0.90;;
16025;SDS011;8117;52.488;13.460;2022-12-07T16:33:50;0.33;;;0.20;;
16025;SDS011;8117;52.488;13.460;2022-12-07T16:43:25;0.40;;;0.40;;
16025;SDS011;8117;52.488;13.460;2022-12-07T16:51:50;0.30;;;0.30;;
16025;SDS011;8117;52.488;13.460;2022-12-07T16:54:23;1.60;;;0.67;;
16025;SDS011;8117;52.488;13.460;2022-12-07T16:56:50;0.40;;;0.40;;
16025;SDS011;8117;52.488;13.460;2022-12-07T16:59:54;1.00;;;1.00;;
16025;SDS011;8117;52.488;13.460;2022-12-07T17:02:20;0.83;;;0.67;;
16025;SDS011;8117;52.488;13.460;2022-12-07T17:04:47;2.37;;;0.30;;
16025;SDS011;8117;52.488;13.460;2022-12-07T17:07:24;0.30;;;0.30;;
16025;SDS011;8117;52.488;13.460;2022-12-07T17:10:22;0.40;;;0.40;;
16025;SDS011;8117;52.488;13.460;2022-12-07T17:30:25;0.23;;;0.23;;
16025;SDS011;8117;52.488;13.460;2022-12-07T17:32:58;0.60;;;0.60;;
16025;SDS011;8117;52.488;13.460;2022-12-07T17:35:45;1.50;;;0.63;;
16025;SDS011;8117;52.488;13.460;2022-12-07T17:38:37;0.93;;;0.83;;
16025;SDS011;8117;52.488;13.460;2022-12-07T17:41:15;0.37;;;0.37;;
16025;SDS011;8117;52.488;13.460;2022-12-07T17:44:08;0.23;;;0.20;;
16025;SDS011;8117;52.488;13.460;2022-12-07T17:46:48;0.60;;;0.60;;
16025;SDS011;8117;52.488;13.460;2022-12-07T17:49:30;0.43;;;0.30;;
16025;SDS011;8117;52.488;13.460;2022-12-07T17:52:29;8.43;;;1.53;;
16025;SDS011;8117;52.488;13.460;2022-12-07T17:55:15;1.50;;;1.17;;
16025;SDS011;8117;52.488;13.460;2022-12-07T17:57:45;0.87;;;0.20;;
16025;SDS011;8117;52.488;13.460;2022-12-07T18:07:12;0.30;;;0.30;;
16025;SDS011;8117;52.488;13.460;2022-12-07T18:10:03;0.27;;;0.27;;
16025;SDS011;8117;52.488;13.460;2022-12-07T18:12:59;0.50;;;0.47;;
16025;SDS011;8117;52.488;13.460;2022-12-07T18:15:47;1.03;;;1.03;;
16025;SDS011;8117;52.488;13.460;2022-12-07T18:19:17;3.70;;;0.70;;
16025;SDS011;8117;52.488;13.460;2022-12-07T18:21:37;1.60;;;0.70;;
16025;SDS011;8117;52.488;13.460;2022-12-07T18:24:05;0.73;;;0.73;;
16025;SDS011;8117;52.488;13.460;2022-12-07T18:30:06;1.53;;;1.27;;
16025;SDS011;8117;52.488;13.460;2022-12-07T18:33:09;1.90;;;0.97;;
16025;SDS011;8117;52.488;13.460;2022-12-07T18:35:42;0.87;;;0.37;;
16025;SDS011;8117;52.488;13.460;2022-12-07T18:45:05;0.70;;;0.70;;
16025;SDS011;8117;52.488;13.460;2022-12-07T18:47:48;0.40;;;0.40;;
16025;SDS011;8117;52.488;13.460;2022-12-07T18:50:17;0.83;;;0.70;;
16025;SDS011;8117;52.488;13.460;2022-12-07T18:52:54;0.33;;;0.33;;
16025;SDS011;8117;52.488;13.460;2022-12-07T18:55:29;0.80;;;0.53;;
16025;SDS011;8117;52.488;13.460;2022-12-07T18:57:59;6.13;;;0.70;;
16025;SDS011;8117;52.488;13.460;2022-12-07T19:00:30;2.30;;;0.93;;
16025;SDS011;8117;52.488;13.460;2022-12-07T19:03:23;0.40;;;0.40;;
16025;SDS011;8117;52.488;13.460;2022-12-07T19:05:51;1.37;;;1.27;;
16025;SDS011;8117;52.488;13.460;2022-12-07T19:08:31;1.07;;;0.57;;
16025;SDS011;8117;52.488;13.460;2022-12-07T19:11:15;0.30;;;0.20;;
16025;SDS011;8117;52.488;13.460;2022-12-07T19:14:08;1.33;;;1.20;;
16025;SDS011;8117;52.488;13.460;2022-12-07T19:16:53;0.93;;;0.50;;
16025;SDS011;8117;52.488;13.460;2022-12-07T19:23:16;2.03;;;1.80;;
16025;SDS011;8117;52.488;13.460;2022-12-07T21:30:33;0.57;;;0.30;;
16025;SDS011;8117;52.488;13.460;2022-12-07T22:41:54;0.60;;;0.60;;
16025;SDS011;8117;52.488;13.460;2022-12-07T22:45:01;0.70;;;0.70;;
16025;SDS011;8117;52.488;13.460;2022-12-07T23:13:20;1.10;;;1.00;;
